Time;durP1;ratioP1;P1;durP2;ratioP2;P2;SDS_P1;SDS_P2;PMS_P1;PMS_P2;Temp;Humidity;BMP_temperature;BMP_pressure;BME280_temperature;BME280_humidity;BME280_pressure;Samples;Min_cycle;Max_cycle;Signal;HPM_P1;HPM_P2
2022/06/30 00:01:45;;;;;;;6.72;3.40;;;;;;;;;;5110079;28;20112;-71
2022/06/30 00:04:12;;;;;;;7.95;3.35;;;;;;;;;;5096529;28;20493;-72
2022/06/30 00:06:38;;;;;;;9.70;3.60;;;;;;;;;;5104728;28;20040;-71
2022/06/30 00:09:04;;;;;;;9.02;3.83;;;;;;;;;;5105078;28;20043;-72
2022/06/30 00:11:30;;;;;;;7.68;3.05;;;;;;;;;;5105622;28;20040;-72
2022/06/30 00:13:57;;;;;;;8.80;3.70;;;;;;;;;;5104203;28;20044;-72
2022/06/30 00:16:23;;;;;;;7.15;4.15;;;;;;;;;;5103457;28;20584;-72
2022/06/30 00:18:49;;;;;;;6.28;4.28;;;;;;;;;;5105825;28;20439;-71
2022/06/30 00:21:15;;;;;;;8.57;4.20;;;;;;;;;;5104487;28;20055;-71
2022/06/30 00:23:41;;;;;;;7.70;4.00;;;;;;;;;;5107737;28;20047;-72
2022/06/30 00:26:08;;;;;;;7.20;4.30;;;;;;;;;;5105181;28;20470;-72
2022/06/30 00:28:33;;;;;;;8.35;4.22;;;;;;;;;;5103779;28;20176;-72
2022/06/30 00:30:59;;;;;;;9.65;4.55;;;;;;;;;;5105896;28;20715;-72
2022/06/30 00:33:25;;;;;;;9.48;4.57;;;;;;;;;;5104920;28;20127;-72
2022/06/30 00:35:52;;;;;;;9.70;4.32;;;;;;;;;;5114370;28;20392;-71
2022/06/30 00:38:18;;;;;;;12.45;4.55;;;;;;;;;;5112135;28;20053;-72
2022/06/30 00:40:45;;;;;;;9.57;5.18;;;;;;;;;;5113019;28;20035;-72
2022/06/30 00:43:11;;;;;;;7.82;4.50;;;;;;;;;;5112759;28;20050;-72
2022/06/30 00:45:44;;;;;;;7.13;4.60;;;;;;;;;;5114747;28;20035;-72
2022/06/30 00:48:11;;;;;;;8.82;4.43;;;;;;;;;;5113696;28;20507;-72
2022/06/30 00:50:37;;;;;;;9.18;4.40;;;;;;;;;;5115338;28;20039;-72
2022/06/30 00:53:04;;;;;;;7.07;4.32;;;;;;;;;;5113947;28;20094;-72
2022/06/30 00:55:31;;;;;;;8.52;4.18;;;;;;;;;;5111960;28;20032;-72
2022/06/30 00:57:59;;;;;;;7.93;4.20;;;;;;;;;;5113491;28;20041;-71
2022/06/30 01:00:26;;;;;;;8.63;4.28;;;;;;;;;;5111004;28;20562;-72
2022/06/30 01:02:53;;;;;;;6.82;3.70;;;;;;;;;;5113974;28;20060;-72
2022/06/30 01:05:21;;;;;;;7.97;3.95;;;;;;;;;;5109430;28;20039;-72
2022/06/30 01:07:47;;;;;;;9.70;4.45;;;;;;;;;;5114153;28;20100;-71
2022/06/30 01:12:58;;;;;;;7.28;4.13;;;;;;;;;;5111823;28;20778;-71
2022/06/30 01:15:25;;;;;;;6.78;3.85;;;;;;;;;;5110783;28;20051;-71
2022/06/30 01:17:51;;;;;;;6.88;4.28;;;;;;;;;;5111402;28;20081;-71
2022/06/30 01:20:19;;;;;;;7.05;3.70;;;;;;;;;;5114146;28;20044;-71
2022/06/30 01:22:45;;;;;;;8.57;4.20;;;;;;;;;;5113137;28;20516;-72
2022/06/30 01:25:11;;;;;;;7.97;3.70;;;;;;;;;;5112920;28;20039;-72
2022/06/30 01:27:37;;;;;;;6.88;3.85;;;;;;;;;;5094545;28;20130;-71
2022/06/30 01:30:04;;;;;;;5.43;3.45;;;;;;;;;;5075130;28;20094;-71
2022/06/30 01:32:30;;;;;;;8.52;3.50;;;;;;;;;;5109913;28;20040;-72
2022/06/30 01:34:57;;;;;;;6.63;3.55;;;;;;;;;;5112591;28;20036;-72
2022/06/30 01:37:23;;;;;;;8.07;3.55;;;;;;;;;;5111654;28;20040;-72
2022/06/30 01:39:50;;;;;;;8.13;3.40;;;;;;;;;;5112300;28;20035;-70
2022/06/30 01:42:16;;;;;;;6.53;3.97;;;;;;;;;;5112040;28;20036;-70
2022/06/30 01:44:42;;;;;;;7.43;3.50;;;;;;;;;;5110336;28;20413;-70
2022/06/30 01:47:09;;;;;;;8.10;3.85;;;;;;;;;;5094344;28;20047;-71
2022/06/30 01:49:35;;;;;;;6.57;3.60;;;;;;;;;;5093249;28;20057;-71
2022/06/30 01:52:01;;;;;;;7.65;3.60;;;;;;;;;;5113627;28;20044;-70
2022/06/30 01:54:27;;;;;;;7.75;3.80;;;;;;;;;;5095242;28;20047;-72
2022/06/30 01:56:53;;;;;;;8.00;3.35;;;;;;;;;;5111087;28;20055;-72
2022/06/30 01:59:19;;;;;;;6.78;3.40;;;;;;;;;;5110816;28;20451;-72
2022/06/30 02:01:45;;;;;;;6.47;3.10;;;;;;;;;;5111814;28;20054;-72
2022/06/30 02:06:56;;;;;;;5.63;2.85;;;;;;;;;;5110499;28;20075;-71
2022/06/30 02:09:22;;;;;;;8.77;3.30;;;;;;;;;;5111749;28;20035;-71
2022/06/30 02:11:48;;;;;;;6.95;3.45;;;;;;;;;;5112840;28;20042;-71
2022/06/30 02:14:14;;;;;;;5.28;3.13;;;;;;;;;;5110592;28;20474;-71
2022/06/30 02:16:40;;;;;;;6.05;3.60;;;;;;;;;;5111240;28;20456;-71
2022/06/30 02:19:06;;;;;;;6.28;3.30;;;;;;;;;;5110005;28;20562;-72
2022/06/30 02:21:32;;;;;;;7.32;3.70;;;;;;;;;;5113853;28;20127;-72
2022/06/30 02:23:58;;;;;;;6.90;3.65;;;;;;;;;;5107369;28;20039;-72
2022/06/30 02:26:24;;;;;;;6.07;3.35;;;;;;;;;;5112820;28;20059;-71
2022/06/30 02:28:50;;;;;;;6.18;3.60;;;;;;;;;;5109591;28;20039;-71
2022/06/30 02:31:16;;;;;;;6.65;3.40;;;;;;;;;;5103270;28;20039;-71
2022/06/30 02:33:42;;;;;;;5.07;3.17;;;;;;;;;;5110861;28;20047;-71
2022/06/30 02:36:08;;;;;;;7.32;3.25;;;;;;;;;;5112740;28;20048;-71
2022/06/30 02:38:35;;;;;;;6.03;3.50;;;;;;;;;;5111508;28;20443;-72
2022/06/30 02:41:01;;;;;;;8.98;3.67;;;;;;;;;;5110499;28;20039;-72
2022/06/30 02:43:27;;;;;;;6.88;3.80;;;;;;;;;;5084679;28;20482;-71
2022/06/30 02:45:53;;;;;;;6.15;3.45;;;;;;;;;;5110854;28;20051;-72
2022/06/30 02:48:19;;;;;;;6.35;3.90;;;;;;;;;;5111826;28;20048;-71
2022/06/30 02:50:46;;;;;;;12.45;4.35;;;;;;;;;;5112946;28;20079;-72
2022/06/30 02:53:12;;;;;;;8.25;4.28;;;;;;;;;;5111393;28;20044;-71
2022/06/30 02:55:38;;;;;;;9.32;4.13;;;;;;;;;;5113260;28;20100;-71
2022/06/30 02:58:04;;;;;;;6.07;3.70;;;;;;;;;;5111615;28;20039;-71
2022/06/30 03:00:30;;;;;;;6.32;3.63;;;;;;;;;;5109626;28;20043;-72
2022/06/30 03:02:57;;;;;;;8.02;4.03;;;;;;;;;;5112553;28;20122;-71
2022/06/30 03:05:24;;;;;;;7.13;4.50;;;;;;;;;;5111381;28;20445;-71
2022/06/30 03:07:50;;;;;;;7.07;4.00;;;;;;;;;;5112039;28;20055;-71
2022/06/30 03:10:16;;;;;;;7.93;4.45;;;;;;;;;;5091522;28;20394;-71
2022/06/30 03:12:42;;;;;;;7.30;4.38;;;;;;;;;;5111053;28;20043;-71
2022/06/30 03:15:08;;;;;;;8.63;4.28;;;;;;;;;;5108201;28;20040;-71
2022/06/30 03:17:35;;;;;;;7.57;4.32;;;;;;;;;;5112454;28;20039;-71
2022/06/30 03:20:01;;;;;;;6.30;4.38;;;;;;;;;;5093031;28;20054;-72
2022/06/30 03:22:27;;;;;;;7.05;4.40;;;;;;;;;;5112298;28;20050;-72
2022/06/30 03:24:53;;;;;;;6.57;4.43;;;;;;;;;;5110978;28;20044;-72
2022/06/30 03:27:19;;;;;;;6.85;4.78;;;;;;;;;;5112240;28;20104;-72
2022/06/30 03:29:45;;;;;;;6.68;4.60;;;;;;;;;;5092656;28;20107;-72
2022/06/30 03:32:11;;;;;;;8.07;4.50;;;;;;;;;;5109282;28;20043;-72
2022/06/30 03:34:37;;;;;;;7.40;4.50;;;;;;;;;;5111500;28;20131;-72
2022/06/30 03:37:03;;;;;;;7.72;4.85;;;;;;;;;;5109196;28;20138;-72
2022/06/30 03:39:29;;;;;;;6.97;4.63;;;;;;;;;;5111249;28;20058;-70
2022/06/30 03:41:55;;;;;;;7.90;4.78;;;;;;;;;;5113374;28;20047;-71
2022/06/30 03:44:21;;;;;;;7.03;4.50;;;;;;;;;;5115217;28;20054;-71
2022/06/30 03:46:47;;;;;;;8.65;4.93;;;;;;;;;;5097182;28;20039;-71
2022/06/30 03:49:15;;;;;;;10.35;5.40;;;;;;;;;;5113619;28;20457;-71
2022/06/30 03:51:41;;;;;;;9.23;5.30;;;;;;;;;;5115673;28;20055;-71
2022/06/30 03:54:07;;;;;;;7.15;4.70;;;;;;;;;;5116042;28;20050;-72
2022/06/30 03:56:33;;;;;;;7.75;4.95;;;;;;;;;;5115676;28;20389;-71
2022/06/30 03:58:59;;;;;;;6.85;4.95;;;;;;;;;;5113412;28;20054;-71
2022/06/30 04:01:25;;;;;;;7.45;4.93;;;;;;;;;;5113793;28;20116;-71
2022/06/30 04:03:51;;;;;;;9.00;4.72;;;;;;;;;;5113135;28;20082;-72
2022/06/30 04:06:17;;;;;;;7.82;5.00;;;;;;;;;;5109980;28;20044;-71
2022/06/30 04:08:43;;;;;;;7.68;4.82;;;;;;;;;;5114823;28;20067;-71
2022/06/30 04:11:09;;;;;;;6.93;5.13;;;;;;;;;;5116470;28;20048;-71
2022/06/30 04:13:35;;;;;;;7.75;5.30;;;;;;;;;;5114527;28;20046;-71
2022/06/30 04:16:01;;;;;;;7.50;5.55;;;;;;;;;;5113068;28;20061;-72
2022/06/30 04:18:27;;;;;;;7.95;5.40;;;;;;;;;;5115028;28;20043;-71
2022/06/30 04:20:53;;;;;;;10.00;5.35;;;;;;;;;;5115012;28;20055;-70
2022/06/30 04:23:20;;;;;;;7.45;4.97;;;;;;;;;;5097117;28;20047;-71
2022/06/30 04:25:47;;;;;;;8.30;5.10;;;;;;;;;;5116029;28;20058;-71
2022/06/30 04:28:13;;;;;;;6.63;4.78;;;;;;;;;;5110200;28;20068;-72
2022/06/30 04:33:24;;;;;;;9.50;4.57;;;;;;;;;;5114189;28;20407;-71
2022/06/30 04:35:50;;;;;;;7.25;4.70;;;;;;;;;;5114375;28;20489;-72
2022/06/30 04:38:16;;;;;;;8.30;4.53;;;;;;;;;;5112855;27;20048;-71
2022/06/30 04:43:26;;;;;;;7.65;4.70;;;;;;;;;;5114147;28;20075;-71
2022/06/30 04:45:52;;;;;;;7.97;4.40;;;;;;;;;;5114978;28;20086;-71
2022/06/30 04:48:19;;;;;;;7.32;4.45;;;;;;;;;;5112832;28;20459;-72
2022/06/30 04:50:45;;;;;;;6.40;4.68;;;;;;;;;;5114911;28;20135;-73
2022/06/30 04:53:11;;;;;;;7.18;5.07;;;;;;;;;;5114013;28;20116;-71
2022/06/30 04:55:39;;;;;;;6.45;4.30;;;;;;;;;;5115286;28;20481;-72
2022/06/30 04:58:05;;;;;;;8.02;4.88;;;;;;;;;;5113274;28;20075;-71
2022/06/30 05:00:31;;;;;;;11.05;5.28;;;;;;;;;;5114092;28;20043;-72
2022/06/30 05:02:57;;;;;;;8.15;4.55;;;;;;;;;;5111513;28;20048;-71
2022/06/30 05:05:23;;;;;;;7.30;5.20;;;;;;;;;;5114419;28;20051;-71
2022/06/30 05:07:49;;;;;;;10.88;5.25;;;;;;;;;;5111660;28;20156;-71
2022/06/30 05:10:15;;;;;;;7.57;5.55;;;;;;;;;;5114248;28;20040;-71
2022/06/30 05:12:41;;;;;;;11.02;5.65;;;;;;;;;;5113376;28;20051;-71
2022/06/30 05:15:08;;;;;;;7.15;5.70;;;;;;;;;;5112169;28;20044;-72
2022/06/30 05:17:34;;;;;;;8.55;5.63;;;;;;;;;;5111923;28;20039;-72
2022/06/30 05:20:01;;;;;;;9.98;6.20;;;;;;;;;;5113947;28;20390;-71
2022/06/30 05:22:27;;;;;;;8.70;6.05;;;;;;;;;;5114372;28;20054;-72
2022/06/30 05:27:38;;;;;;;7.47;5.95;;;;;;;;;;5110971;28;20130;-71
2022/06/30 05:30:04;;;;;;;10.98;6.15;;;;;;;;;;5111121;28;20048;-71
2022/06/30 05:32:30;;;;;;;8.30;5.88;;;;;;;;;;5113371;28;20168;-71
2022/06/30 05:34:56;;;;;;;9.77;5.60;;;;;;;;;;5113975;28;20199;-71
2022/06/30 05:37:22;;;;;;;7.25;5.10;;;;;;;;;;5105522;28;20123;-73
2022/06/30 05:39:48;;;;;;;7.55;5.00;;;;;;;;;;5112504;28;20055;-72
2022/06/30 05:42:14;;;;;;;7.95;4.50;;;;;;;;;;5092002;28;20048;-72
2022/06/30 05:44:40;;;;;;;10.48;4.85;;;;;;;;;;5113704;28;20509;-72
2022/06/30 05:47:06;;;;;;;7.28;4.43;;;;;;;;;;5094881;28;20047;-71
2022/06/30 05:49:32;;;;;;;8.23;4.47;;;;;;;;;;5112485;28;20051;-73
2022/06/30 05:51:58;;;;;;;8.68;4.57;;;;;;;;;;5113418;28;20082;-71
2022/06/30 05:54:24;;;;;;;7.80;4.43;;;;;;;;;;5110118;28;20048;-72
2022/06/30 05:56:50;;;;;;;6.70;4.47;;;;;;;;;;5114119;28;20047;-72
2022/06/30 05:59:16;;;;;;;9.23;4.53;;;;;;;;;;5097055;28;20047;-72
2022/06/30 06:01:42;;;;;;;8.13;4.22;;;;;;;;;;5109035;28;20054;-71
2022/06/30 06:04:08;;;;;;;6.25;4.60;;;;;;;;;;5108670;28;20040;-71
2022/06/30 06:06:34;;;;;;;11.13;4.22;;;;;;;;;;5110273;28;21081;-71
2022/06/30 06:09:00;;;;;;;6.03;4.13;;;;;;;;;;5111529;27;20054;-71
2022/06/30 06:11:26;;;;;;;8.35;3.78;;;;;;;;;;5113730;28;20079;-72
2022/06/30 06:13:52;;;;;;;8.43;4.00;;;;;;;;;;5110863;28;20039;-70
2022/06/30 06:16:18;;;;;;;7.22;3.60;;;;;;;;;;5113926;28;20400;-70
2022/06/30 06:18:44;;;;;;;5.88;3.80;;;;;;;;;;5095598;28;20040;-70
2022/06/30 06:21:10;;;;;;;6.80;3.55;;;;;;;;;;5112768;28;20100;-71
2022/06/30 06:23:36;;;;;;;6.80;3.95;;;;;;;;;;5113651;28;20144;-70
2022/06/30 06:26:02;;;;;;;5.68;3.80;;;;;;;;;;5111592;28;20043;-70
2022/06/30 06:31:13;;;;;;;6.78;3.28;;;;;;;;;;5112093;28;20131;-71
2022/06/30 06:33:39;;;;;;;8.60;3.70;;;;;;;;;;5111953;28;20615;-70
2022/06/30 06:36:05;;;;;;;5.80;3.67;;;;;;;;;;5113511;28;20048;-69
2022/06/30 06:38:31;;;;;;;7.55;3.80;;;;;;;;;;5113914;28;20096;-71
2022/06/30 06:40:57;;;;;;;6.80;4.18;;;;;;;;;;5113010;28;20035;-73
2022/06/30 06:43:23;;;;;;;9.43;3.95;;;;;;;;;;5112479;28;20575;-70
2022/06/30 06:45:50;;;;;;;5.68;3.53;;;;;;;;;;5095325;28;20043;-71
2022/06/30 06:48:16;;;;;;;7.05;4.03;;;;;;;;;;5113087;28;20063;-70
2022/06/30 06:50:42;;;;;;;7.60;3.80;;;;;;;;;;5098409;28;20044;-71
2022/06/30 06:53:08;;;;;;;8.23;3.90;;;;;;;;;;5108718;28;20054;-71
2022/06/30 06:55:34;;;;;;;7.50;3.83;;;;;;;;;;5106965;28;20043;-70
2022/06/30 06:58:00;;;;;;;6.30;3.70;;;;;;;;;;5109405;28;20123;-70
2022/06/30 07:00:26;;;;;;;6.60;4.22;;;;;;;;;;5126893;28;20493;-73
2022/06/30 07:02:52;;;;;;;6.32;3.70;;;;;;;;;;5133348;28;20126;-71
2022/06/30 07:05:18;;;;;;;13.20;3.80;;;;;;;;;;5121968;28;20035;-75
2022/06/30 07:07:44;;;;;;;7.07;3.80;;;;;;;;;;5114306;28;20525;-71
2022/06/30 07:10:10;;;;;;;6.50;3.90;;;;;;;;;;5113311;28;20061;-71
2022/06/30 07:12:36;;;;;;;8.73;4.25;;;;;;;;;;5112817;28;20080;-71
2022/06/30 07:15:02;;;;;;;12.73;3.78;;;;;;;;;;5110909;28;20048;-72
2022/06/30 07:17:28;;;;;;;9.25;3.67;;;;;;;;;;5116066;28;20058;-73
2022/06/30 07:19:54;;;;;;;8.13;4.10;;;;;;;;;;5117267;28;20527;-71
2022/06/30 07:22:21;;;;;;;8.70;3.95;;;;;;;;;;5116933;28;20050;-71
2022/06/30 07:24:47;;;;;;;6.70;4.20;;;;;;;;;;5116062;27;20051;-70
2022/06/30 07:27:13;;;;;;;5.72;4.07;;;;;;;;;;5100339;28;20047;-72
2022/06/30 07:29:39;;;;;;;6.53;4.20;;;;;;;;;;5110386;28;20043;-70
2022/06/30 07:32:05;;;;;;;6.88;4.03;;;;;;;;;;5113544;28;20494;-70
2022/06/30 07:34:31;;;;;;;6.68;4.80;;;;;;;;;;5113413;28;20126;-70
2022/06/30 07:36:57;;;;;;;9.57;4.20;;;;;;;;;;5114122;28;20635;-70
2022/06/30 07:39:23;;;;;;;8.18;4.85;;;;;;;;;;5116246;28;20047;-71
2022/06/30 07:41:49;;;;;;;7.57;3.80;;;;;;;;;;5098452;28;20051;-71
2022/06/30 07:44:15;;;;;;;7.88;4.60;;;;;;;;;;5084423;28;20056;-70
2022/06/30 07:46:41;;;;;;;9.32;5.00;;;;;;;;;;5095840;28;20040;-70
2022/06/30 07:49:07;;;;;;;7.57;4.72;;;;;;;;;;5115453;28;20047;-71
2022/06/30 07:51:33;;;;;;;6.90;4.18;;;;;;;;;;5113018;28;20055;-71
2022/06/30 07:53:59;;;;;;;8.25;4.53;;;;;;;;;;5116191;28;20050;-71
2022/06/30 07:56:25;;;;;;;7.25;5.45;;;;;;;;;;5115581;28;20043;-71
2022/06/30 07:58:51;;;;;;;7.20;4.68;;;;;;;;;;5096663;28;20048;-71
2022/06/30 08:01:19;;;;;;;7.80;5.05;;;;;;;;;;5115893;28;20546;-71
2022/06/30 08:03:45;;;;;;;9.38;5.07;;;;;;;;;;5097352;27;20043;-72
2022/06/30 08:06:12;;;;;;;8.70;5.85;;;;;;;;;;5114980;28;20043;-74
2022/06/30 08:08:38;;;;;;;8.25;4.80;;;;;;;;;;5116242;28;20045;-72
2022/06/30 08:11:04;;;;;;;8.48;5.95;;;;;;;;;;5116238;28;20165;-72
2022/06/30 08:13:30;;;;;;;8.77;5.43;;;;;;;;;;5113128;28;20078;-72
2022/06/30 08:15:56;;;;;;;9.55;5.70;;;;;;;;;;5112355;28;20036;-72
2022/06/30 08:18:22;;;;;;;8.57;5.97;;;;;;;;;;5113993;28;20052;-72
2022/06/30 08:20:48;;;;;;;9.07;5.47;;;;;;;;;;5121723;27;20055;-74
2022/06/30 08:23:14;;;;;;;8.43;5.43;;;;;;;;;;5114869;28;20401;-72
2022/06/30 08:25:40;;;;;;;8.23;5.65;;;;;;;;;;5095781;28;20048;-72
2022/06/30 08:28:08;;;;;;;8.75;5.60;;;;;;;;;;5110542;28;20044;-72
2022/06/30 08:30:34;;;;;;;7.80;5.80;;;;;;;;;;5113163;28;20228;-73
2022/06/30 08:33:00;;;;;;;8.05;5.20;;;;;;;;;;5114169;28;20112;-73
2022/06/30 08:35:26;;;;;;;8.30;6.18;;;;;;;;;;5117870;28;20040;-74
2022/06/30 08:37:54;;;;;;;10.10;5.65;;;;;;;;;;5116335;27;20114;-73
2022/06/30 08:43:09;;;;;;;7.93;5.78;;;;;;;;;;5112897;28;20131;-72
2022/06/30 08:45:36;;;;;;;7.90;6.25;;;;;;;;;;5109755;28;20039;-73
2022/06/30 08:48:02;;;;;;;9.65;5.68;;;;;;;;;;5111999;27;20078;-73
2022/06/30 08:50:28;;;;;;;11.20;6.13;;;;;;;;;;5111518;28;20051;-72
2022/06/30 08:52:56;;;;;;;9.02;6.07;;;;;;;;;;5106435;27;20122;-74
2022/06/30 08:55:25;;;;;;;8.45;6.38;;;;;;;;;;5104978;28;20043;-73
2022/06/30 08:57:54;;;;;;;10.13;6.50;;;;;;;;;;5108034;28;20397;-73
2022/06/30 09:00:20;;;;;;;9.23;6.50;;;;;;;;;;5109237;28;20169;-72
2022/06/30 09:02:46;;;;;;;8.10;5.90;;;;;;;;;;5109336;28;20405;-71
2022/06/30 09:05:14;;;;;;;8.70;7.28;;;;;;;;;;5098066;28;20036;-72
2022/06/30 09:07:40;;;;;;;9.52;6.97;;;;;;;;;;5106517;28;20054;-71
2022/06/30 09:10:07;;;;;;;10.07;7.10;;;;;;;;;;5112594;27;20043;-71
2022/06/30 09:12:33;;;;;;;10.48;6.95;;;;;;;;;;5109592;28;20072;-72
2022/06/30 09:15:00;;;;;;;10.60;7.10;;;;;;;;;;5113716;28;20039;-72
2022/06/30 09:17:27;;;;;;;9.60;7.63;;;;;;;;;;5112575;28;20118;-70
2022/06/30 09:19:58;;;;;;;8.93;7.30;;;;;;;;;;5112169;28;20474;-71
2022/06/30 09:22:26;;;;;;;8.73;7.47;;;;;;;;;;5114084;28;20071;-71
2022/06/30 09:24:59;;;;;;;10.40;7.22;;;;;;;;;;5113997;28;20440;-71
2022/06/30 09:27:27;;;;;;;8.30;6.90;;;;;;;;;;5113032;28;20044;-71
2022/06/30 09:29:53;;;;;;;9.68;7.20;;;;;;;;;;5113340;28;20050;-71
2022/06/30 09:32:19;;;;;;;10.55;8.13;;;;;;;;;;5098070;28;20517;-72
2022/06/30 09:34:45;;;;;;;8.20;6.97;;;;;;;;;;5114338;27;20043;-72
2022/06/30 09:37:16;;;;;;;8.75;7.60;;;;;;;;;;5109464;28;20043;-71
2022/06/30 09:39:43;;;;;;;;;;;;;;;;;;5113356;28;20118;-72
2022/06/30 09:42:09;;;;;;;8.35;7.47;;;;;;;;;;5113395;28;20339;-71
2022/06/30 09:44:36;;;;;;;8.70;7.22;;;;;;;;;;5094209;28;20425;-72
2022/06/30 09:47:03;;;;;;;9.32;8.32;;;;;;;;;;5111674;28;20036;-71
2022/06/30 09:49:30;;;;;;;10.13;8.25;;;;;;;;;;5105904;28;20044;-72
2022/06/30 09:51:56;;;;;;;9.70;8.25;;;;;;;;;;5112580;28;20046;-71
2022/06/30 09:54:22;;;;;;;10.32;8.48;;;;;;;;;;5108010;28;20043;-71
2022/06/30 09:57:07;;;;;;;9.65;8.70;;;;;;;;;;5114151;28;20040;-71
2022/06/30 09:59:34;;;;;;;11.30;7.25;;;;;;;;;;5114069;28;20043;-72
2022/06/30 10:02:00;;;;;;;12.85;7.70;;;;;;;;;;5113534;28;20040;-71
2022/06/30 10:04:26;;;;;;;9.88;7.80;;;;;;;;;;5114066;28;20044;-69
2022/06/30 10:06:53;;;;;;;10.63;8.10;;;;;;;;;;5113478;27;20122;-72
2022/06/30 10:09:19;;;;;;;9.85;8.85;;;;;;;;;;5111181;28;20044;-72
2022/06/30 10:11:46;;;;;;;10.18;9.00;;;;;;;;;;5110203;28;20482;-72
2022/06/30 10:14:14;;;;;;;11.23;9.68;;;;;;;;;;5093742;28;20136;-72
2022/06/30 10:16:41;;;;;;;10.18;7.93;;;;;;;;;;5101758;28;20104;-72
2022/06/30 10:19:10;;;;;;;9.63;8.60;;;;;;;;;;5089891;28;20048;-71
2022/06/30 10:21:39;;;;;;;10.77;8.75;;;;;;;;;;5102000;28;20039;-71
2022/06/30 10:24:06;;;;;;;10.13;8.38;;;;;;;;;;5113010;28;20123;-72
2022/06/30 10:29:19;;;;;;;9.50;8.50;;;;;;;;;;5098653;28;20044;-72
2022/06/30 10:31:51;;;;;;;10.27;8.57;;;;;;;;;;5109051;28;20032;-71
2022/06/30 10:34:21;;;;;;;10.57;8.05;;;;;;;;;;5074847;28;20040;-71
2022/06/30 10:37:06;;;;;;;10.80;8.23;;;;;;;;;;5109255;28;20046;-72
2022/06/30 10:39:58;;;;;;;9.95;8.57;;;;;;;;;;5112404;28;20040;-71
2022/06/30 10:42:41;;;;;;;10.68;7.38;;;;;;;;;;5090908;28;20056;-71
2022/06/30 10:45:27;;;;;;;11.07;9.10;;;;;;;;;;5095013;28;20043;-71
2022/06/30 10:47:56;;;;;;;9.10;8.13;;;;;;;;;;5093269;28;20036;-72
2022/06/30 10:50:33;;;;;;;10.15;7.78;;;;;;;;;;5116158;27;20047;-71
2022/06/30 10:52:59;;;;;;;12.77;8.40;;;;;;;;;;5106389;27;20040;-72
2022/06/30 10:55:25;;;;;;;10.52;9.52;;;;;;;;;;5090872;28;20046;-72
2022/06/30 10:58:06;;;;;;;8.25;7.30;;;;;;;;;;5110255;28;20040;-72
2022/06/30 11:00:42;;;;;;;9.63;8.30;;;;;;;;;;5108249;28;20040;-72
2022/06/30 11:03:08;;;;;;;10.05;8.25;;;;;;;;;;5101215;28;20497;-71
2022/06/30 11:05:48;;;;;;;10.15;7.88;;;;;;;;;;5111605;28;20044;-71
2022/06/30 11:08:33;;;;;;;10.85;8.07;;;;;;;;;;5112808;28;20405;-72
2022/06/30 11:10:59;;;;;;;9.38;7.60;;;;;;;;;;5113058;28;20054;-72
2022/06/30 11:13:28;;;;;;;9.40;8.43;;;;;;;;;;5111596;28;20040;-71
2022/06/30 11:15:55;;;;;;;10.18;7.22;;;;;;;;;;5111417;28;20050;-72
2022/06/30 11:18:22;;;;;;;9.82;7.47;;;;;;;;;;5112663;28;20059;-72
2022/06/30 11:20:49;;;;;;;9.48;7.55;;;;;;;;;;5093470;28;20448;-71
2022/06/30 11:23:16;;;;;;;11.32;7.65;;;;;;;;;;5107403;28;20036;-72
2022/06/30 11:28:29;;;;;;;11.88;8.48;;;;;;;;;;5102531;28;20056;-71
2022/06/30 11:30:55;;;;;;;10.57;8.25;;;;;;;;;;5109296;28;20078;-71
2022/06/30 11:33:21;;;;;;;13.20;7.35;;;;;;;;;;5108874;28;20127;-71
2022/06/30 11:36:00;;;;;;;10.38;8.40;;;;;;;;;;5110406;28;20123;-71
2022/06/30 11:38:27;;;;;;;10.73;7.85;;;;;;;;;;5100650;28;20507;-71
2022/06/30 11:41:54;;;;;;;10.10;7.90;;;;;;;;;;5113104;28;20123;-71
2022/06/30 11:43:39;;;;;;;9.65;8.60;;;;;;;;;;5109868;28;20489;-71
2022/06/30 11:46:05;;;;;;;9.38;8.25;;;;;;;;;;5108437;28;20039;-71
2022/06/30 11:48:31;;;;;;;9.38;8.45;;;;;;;;;;5112607;28;20060;-72
2022/06/30 11:50:57;;;;;;;11.57;8.93;;;;;;;;;;5095449;28;20127;-72
2022/06/30 11:53:23;;;;;;;11.60;8.90;;;;;;;;;;5111530;28;20042;-72
2022/06/30 11:55:52;;;;;;;9.32;8.32;;;;;;;;;;5105060;28;20389;-71
2022/06/30 11:58:26;;;;;;;9.93;8.63;;;;;;;;;;5109530;28;20043;-70
2022/06/30 12:00:52;;;;;;;11.10;9.43;;;;;;;;;;5096048;28;20119;-71
2022/06/30 12:03:18;;;;;;;9.60;8.63;;;;;;;;;;5104223;28;20044;-70
2022/06/30 12:05:44;;;;;;;9.50;8.55;;;;;;;;;;5091667;28;20085;-70
2022/06/30 12:08:13;;;;;;;13.35;8.15;;;;;;;;;;5114997;28;20044;-71
2022/06/30 12:10:44;;;;;;;8.43;7.60;;;;;;;;;;5114373;28;20163;-71
2022/06/30 12:13:10;;;;;;;8.30;7.45;;;;;;;;;;5106816;28;20493;-71
2022/06/30 12:15:36;;;;;;;8.23;7.15;;;;;;;;;;5112055;28;20039;-71
2022/06/30 12:18:03;;;;;;;9.82;7.57;;;;;;;;;;5114670;28;20386;-70
2022/06/30 12:20:30;;;;;;;10.15;8.07;;;;;;;;;;5128141;27;20053;-70
2022/06/30 12:22:57;;;;;;;10.48;8.57;;;;;;;;;;5107226;28;20083;-70
2022/06/30 12:25:23;;;;;;;8.98;8.10;;;;;;;;;;5095275;28;20493;-69
2022/06/30 12:27:50;;;;;;;11.38;7.88;;;;;;;;;;5113516;28;20043;-70
2022/06/30 12:30:17;;;;;;;7.47;5.90;;;;;;;;;;5114678;28;20036;-71
2022/06/30 12:32:43;;;;;;;9.48;5.15;;;;;;;;;;5113292;28;20036;-70
2022/06/30 12:35:11;;;;;;;9.60;5.40;;;;;;;;;;5114238;28;20039;-71
2022/06/30 12:37:37;;;;;;;5.55;4.13;;;;;;;;;;5115144;28;20096;-71
2022/06/30 12:40:07;;;;;;;7.40;3.90;;;;;;;;;;5113408;28;20113;-71
2022/06/30 12:42:43;;;;;;;7.63;3.95;;;;;;;;;;5114227;28;20040;-70
2022/06/30 12:45:28;;;;;;;6.85;5.07;;;;;;;;;;5113039;28;20119;-72
2022/06/30 12:47:54;;;;;;;8.32;5.38;;;;;;;;;;5097653;28;20382;-71
2022/06/30 12:50:22;;;;;;;7.25;5.85;;;;;;;;;;5079342;28;20113;-70
2022/06/30 12:52:48;;;;;;;8.10;5.93;;;;;;;;;;5096443;28;20044;-71
2022/06/30 12:55:14;;;;;;;9.00;6.57;;;;;;;;;;5112623;28;20490;-71
2022/06/30 12:57:40;;;;;;;9.43;6.00;;;;;;;;;;5113137;28;20421;-70
2022/06/30 13:00:07;;;;;;;9.40;6.25;;;;;;;;;;5114435;28;20413;-71
2022/06/30 13:02:39;;;;;;;9.30;5.88;;;;;;;;;;5094468;28;20503;-71
2022/06/30 13:05:10;;;;;;;8.23;4.95;;;;;;;;;;5111428;28;20043;-71
2022/06/30 13:07:36;;;;;;;8.43;4.47;;;;;;;;;;5111767;28;20066;-71
2022/06/30 13:10:03;;;;;;;7.93;4.95;;;;;;;;;;5112668;27;20043;-71
2022/06/30 13:12:29;;;;;;;8.38;5.35;;;;;;;;;;5113756;28;20051;-71
2022/06/30 13:14:55;;;;;;;10.07;4.90;;;;;;;;;;5114390;28;20518;-71
2022/06/30 13:17:21;;;;;;;6.13;4.15;;;;;;;;;;5114199;28;20052;-71
2022/06/30 13:19:48;;;;;;;7.53;4.28;;;;;;;;;;5095590;28;20490;-70
2022/06/30 13:22:14;;;;;;;7.43;4.50;;;;;;;;;;5110964;28;20047;-71
2022/06/30 13:24:40;;;;;;;8.30;4.63;;;;;;;;;;5091077;28;20085;-71
2022/06/30 13:27:06;;;;;;;7.65;4.55;;;;;;;;;;5111476;28;20047;-70
2022/06/30 13:29:34;;;;;;;7.32;4.20;;;;;;;;;;5113758;28;20075;-71
2022/06/30 13:32:00;;;;;;;8.13;4.93;;;;;;;;;;5110898;28;20114;-71
2022/06/30 13:34:26;;;;;;;7.32;5.03;;;;;;;;;;5113549;28;20047;-70
2022/06/30 13:36:53;;;;;;;8.70;5.40;;;;;;;;;;5113990;28;20485;-70
2022/06/30 13:39:22;;;;;;;6.97;5.53;;;;;;;;;;5111383;28;20079;-70
2022/06/30 13:41:48;;;;;;;7.05;4.90;;;;;;;;;;5110762;28;20550;-70
2022/06/30 13:44:15;;;;;;;7.32;5.20;;;;;;;;;;5074355;28;20036;-70
2022/06/30 13:46:41;;;;;;;8.98;5.60;;;;;;;;;;5105775;28;20055;-70
2022/06/30 13:49:08;;;;;;;10.43;6.22;;;;;;;;;;5112520;28;20104;-71
2022/06/30 13:51:34;;;;;;;8.48;5.72;;;;;;;;;;5113036;28;20127;-71
2022/06/30 13:54:00;;;;;;;9.63;5.80;;;;;;;;;;5094493;28;20051;-69
2022/06/30 13:56:27;;;;;;;10.32;5.70;;;;;;;;;;5112883;28;20055;-71
2022/06/30 13:58:53;;;;;;;7.40;5.05;;;;;;;;;;5113638;28;20047;-70
2022/06/30 14:01:19;;;;;;;9.80;5.13;;;;;;;;;;5112264;28;20043;-72
2022/06/30 14:03:45;;;;;;;8.07;5.10;;;;;;;;;;5094759;28;20040;-71
2022/06/30 14:06:11;;;;;;;7.95;5.00;;;;;;;;;;5107070;28;20047;-71
2022/06/30 14:08:37;;;;;;;9.77;4.85;;;;;;;;;;5110024;28;20043;-71
2022/06/30 14:11:03;;;;;;;8.23;4.60;;;;;;;;;;5110381;28;20342;-70
2022/06/30 14:13:30;;;;;;;11.38;5.38;;;;;;;;;;5087589;28;20039;-71
2022/06/30 14:15:56;;;;;;;6.68;4.43;;;;;;;;;;5110455;28;20051;-71
2022/06/30 14:18:22;;;;;;;10.38;5.18;;;;;;;;;;5101404;28;20032;-71
2022/06/30 14:20:49;;;;;;;8.85;5.20;;;;;;;;;;5094285;28;20401;-71
2022/06/30 14:23:15;;;;;;;9.43;4.95;;;;;;;;;;5110727;28;20032;-70
2022/06/30 14:25:41;;;;;;;8.80;5.75;;;;;;;;;;5110807;28;20470;-71
2022/06/30 14:28:07;;;;;;;7.10;5.40;;;;;;;;;;5112865;28;20122;-70
2022/06/30 14:30:34;;;;;;;10.55;5.78;;;;;;;;;;5113153;28;20048;-70
2022/06/30 14:33:01;;;;;;;8.82;6.07;;;;;;;;;;5112632;28;20105;-71
2022/06/30 14:35:28;;;;;;;10.43;4.82;;;;;;;;;;5108555;28;20042;-71
2022/06/30 14:37:54;;;;;;;8.38;3.92;;;;;;;;;;5108109;27;20048;-71
2022/06/30 14:40:20;;;;;;;6.68;3.40;;;;;;;;;;5111256;28;20042;-71
2022/06/30 14:42:47;;;;;;;9.43;4.10;;;;;;;;;;5110707;28;20452;-71
2022/06/30 14:45:19;;;;;;;7.45;5.10;;;;;;;;;;5112550;28;20054;-71
2022/06/30 14:47:46;;;;;;;7.80;5.20;;;;;;;;;;5090717;28;20050;-72
2022/06/30 14:50:12;;;;;;;7.63;4.97;;;;;;;;;;5091527;28;20047;-71
2022/06/30 14:52:38;;;;;;;8.48;5.72;;;;;;;;;;5112624;28;20052;-71
2022/06/30 14:55:05;;;;;;;8.77;6.07;;;;;;;;;;5109632;28;20051;-71
2022/06/30 14:57:32;;;;;;;8.93;5.95;;;;;;;;;;5110100;28;20512;-72
2022/06/30 14:59:59;;;;;;;8.05;6.03;;;;;;;;;;5112119;28;20115;-71
2022/06/30 15:02:25;;;;;;;7.97;6.65;;;;;;;;;;5103441;28;20083;-70
2022/06/30 15:04:51;;;;;;;9.70;5.63;;;;;;;;;;5101643;28;20054;-71